sensor_id;sensor_type;location;lat;lon;timestamp;P1;durP1;ratioP1;P2;durP2;ratioP2
2099;SDS011;1055;48.854;9.302;2022-07-25T00:00:00;18.37;;;14.57;;
2099;SDS011;1055;48.854;9.302;2022-07-25T00:02:26;19.10;;;15.53;;
2099;SDS011;1055;48.854;9.302;2022-07-25T00:04:52;18.03;;;15.20;;
2099;SDS011;1055;48.854;9.302;2022-07-25T00:07:17;16.23;;;14.53;;
2099;SDS011;1055;48.854;9.302;2022-07-25T00:09:43;17.10;;;15.30;;
2099;SDS011;1055;48.854;9.302;2022-07-25T00:12:09;16.67;;;14.97;;
2099;SDS011;1055;48.854;9.302;2022-07-25T00:14:34;17.93;;;15.90;;
2099;SDS011;1055;48.854;9.302;2022-07-25T00:17:00;16.23;;;14.53;;
2099;SDS011;1055;48.854;9.302;2022-07-25T00:19:26;18.20;;;15.70;;
2099;SDS011;1055;48.854;9.302;2022-07-25T00:21:52;16.80;;;15.00;;
2099;SDS011;1055;48.854;9.302;2022-07-25T00:24:17;17.47;;;15.67;;
2099;SDS011;1055;48.854;9.302;2022-07-25T00:26:43;17.53;;;15.73;;
2099;SDS011;1055;48.854;9.302;2022-07-25T00:29:08;17.10;;;15.30;;
2099;SDS011;1055;48.854;9.302;2022-07-25T00:31:34;18.00;;;16.00;;
2099;SDS011;1055;48.854;9.302;2022-07-25T00:34:00;16.87;;;15.07;;
2099;SDS011;1055;48.854;9.302;2022-07-25T00:36:26;17.93;;;16.10;;
2099;SDS011;1055;48.854;9.302;2022-07-25T00:38:52;17.30;;;15.57;;
2099;SDS011;1055;48.854;9.302;2022-07-25T00:41:17;18.23;;;16.27;;
2099;SDS011;1055;48.854;9.302;2022-07-25T00:43:44;16.50;;;14.70;;
2099;SDS011;1055;48.854;9.302;2022-07-25T00:46:13;17.37;;;15.47;;
2099;SDS011;1055;48.854;9.302;2022-07-25T00:48:40;20.03;;;16.67;;
2099;SDS011;1055;48.854;9.302;2022-07-25T00:51:07;17.53;;;15.73;;
2099;SDS011;1055;48.854;9.302;2022-07-25T00:53:34;18.07;;;16.00;;
2099;SDS011;1055;48.854;9.302;2022-07-25T00:56:00;17.93;;;16.00;;
2099;SDS011;1055;48.854;9.302;2022-07-25T00:58:26;17.37;;;15.50;;
2099;SDS011;1055;48.854;9.302;2022-07-25T01:00:53;17.63;;;14.70;;
2099;SDS011;1055;48.854;9.302;2022-07-25T01:03:18;17.27;;;15.47;;
2099;SDS011;1055;48.854;9.302;2022-07-25T01:05:44;18.20;;;16.30;;
2099;SDS011;1055;48.854;9.302;2022-07-25T01:08:10;17.93;;;15.40;;
2099;SDS011;1055;48.854;9.302;2022-07-25T01:10:36;17.63;;;15.73;;
2099;SDS011;1055;48.854;9.302;2022-07-25T01:13:02;16.83;;;15.00;;
2099;SDS011;1055;48.854;9.302;2022-07-25T01:15:27;18.03;;;15.77;;
2099;SDS011;1055;48.854;9.302;2022-07-25T01:17:53;17.80;;;15.60;;
2099;SDS011;1055;48.854;9.302;2022-07-25T01:20:23;18.07;;;15.93;;
2099;SDS011;1055;48.854;9.302;2022-07-25T01:22:50;17.77;;;15.87;;
2099;SDS011;1055;48.854;9.302;2022-07-25T01:25:17;16.70;;;15.00;;
2099;SDS011;1055;48.854;9.302;2022-07-25T01:27:43;17.20;;;15.50;;
2099;SDS011;1055;48.854;9.302;2022-07-25T01:30:10;18.83;;;16.70;;
2099;SDS011;1055;48.854;9.302;2022-07-25T01:32:39;17.20;;;15.27;;
2099;SDS011;1055;48.854;9.302;2022-07-25T01:35:05;16.97;;;15.23;;
2099;SDS011;1055;48.854;9.302;2022-07-25T01:37:32;17.80;;;16.00;;
2099;SDS011;1055;48.854;9.302;2022-07-25T01:39:58;17.93;;;15.47;;
2099;SDS011;1055;48.854;9.302;2022-07-25T01:42:24;20.37;;;16.00;;
2099;SDS011;1055;48.854;9.302;2022-07-25T01:44:50;16.53;;;14.70;;
2099;SDS011;1055;48.854;9.302;2022-07-25T01:47:15;17.00;;;14.97;;
2099;SDS011;1055;48.854;9.302;2022-07-25T01:49:41;17.50;;;15.70;;
2099;SDS011;1055;48.854;9.302;2022-07-25T01:52:08;19.10;;;15.67;;
2099;SDS011;1055;48.854;9.302;2022-07-25T01:54:34;15.20;;;13.60;;
2099;SDS011;1055;48.854;9.302;2022-07-25T01:56:59;17.63;;;15.40;;
2099;SDS011;1055;48.854;9.302;2022-07-25T01:59:25;18.13;;;14.87;;
2099;SDS011;1055;48.854;9.302;2022-07-25T02:01:51;17.77;;;15.80;;
2099;SDS011;1055;48.854;9.302;2022-07-25T02:04:17;17.13;;;15.33;;
2099;SDS011;1055;48.854;9.302;2022-07-25T02:06:42;16.90;;;15.10;;
2099;SDS011;1055;48.854;9.302;2022-07-25T02:09:08;17.30;;;15.50;;
2099;SDS011;1055;48.854;9.302;2022-07-25T02:11:34;17.20;;;15.20;;
2099;SDS011;1055;48.854;9.302;2022-07-25T02:13:59;17.97;;;15.53;;
2099;SDS011;1055;48.854;9.302;2022-07-25T02:16:26;18.37;;;14.97;;
2099;SDS011;1055;48.854;9.302;2022-07-25T02:18:51;17.90;;;15.70;;
2099;SDS011;1055;48.854;9.302;2022-07-25T02:21:17;16.90;;;15.07;;
2099;SDS011;1055;48.854;9.302;2022-07-25T02:23:43;17.67;;;15.73;;
2099;SDS011;1055;48.854;9.302;2022-07-25T02:26:09;19.63;;;15.17;;
2099;SDS011;1055;48.854;9.302;2022-07-25T02:28:35;15.80;;;14.20;;
2099;SDS011;1055;48.854;9.302;2022-07-25T02:31:01;17.47;;;15.60;;
2099;SDS011;1055;48.854;9.302;2022-07-25T02:33:27;16.73;;;14.93;;
2099;SDS011;1055;48.854;9.302;2022-07-25T02:35:52;16.30;;;14.60;;
2099;SDS011;1055;48.854;9.302;2022-07-25T02:38:18;17.63;;;15.67;;
2099;SDS011;1055;48.854;9.302;2022-07-25T02:40:45;17.80;;;15.90;;
2099;SDS011;1055;48.854;9.302;2022-07-25T02:46:32;17.17;;;15.37;;
2099;SDS011;1055;48.854;9.302;2022-07-25T02:48:58;18.47;;;16.47;;
2099;SDS011;1055;48.854;9.302;2022-07-25T02:51:24;17.10;;;15.30;;
2099;SDS011;1055;48.854;9.302;2022-07-25T02:53:50;16.97;;;15.17;;
2099;SDS011;1055;48.854;9.302;2022-07-25T02:56:15;17.30;;;15.10;;
2099;SDS011;1055;48.854;9.302;2022-07-25T02:58:41;19.50;;;16.07;;
2099;SDS011;1055;48.854;9.302;2022-07-25T03:01:07;18.40;;;15.03;;
2099;SDS011;1055;48.854;9.302;2022-07-25T03:03:32;17.07;;;15.27;;
2099;SDS011;1055;48.854;9.302;2022-07-25T03:05:58;17.00;;;15.20;;
2099;SDS011;1055;48.854;9.302;2022-07-25T03:08:24;16.67;;;14.70;;
2099;SDS011;1055;48.854;9.302;2022-07-25T03:10:49;16.70;;;14.77;;
2099;SDS011;1055;48.854;9.302;2022-07-25T03:13:15;17.30;;;15.50;;
2099;SDS011;1055;48.854;9.302;2022-07-25T03:15:40;19.20;;;14.50;;
2099;SDS011;1055;48.854;9.302;2022-07-25T03:18:06;17.13;;;14.90;;
2099;SDS011;1055;48.854;9.302;2022-07-25T03:20:32;17.47;;;15.63;;
2099;SDS011;1055;48.854;9.302;2022-07-25T03:22:57;17.60;;;15.17;;
2099;SDS011;1055;48.854;9.302;2022-07-25T03:25:23;18.50;;;16.03;;
2099;SDS011;1055;48.854;9.302;2022-07-25T03:27:49;18.67;;;15.80;;
2099;SDS011;1055;48.854;9.302;2022-07-25T03:30:14;17.40;;;14.90;;
2099;SDS011;1055;48.854;9.302;2022-07-25T03:32:40;18.87;;;16.87;;
2099;SDS011;1055;48.854;9.302;2022-07-25T03:35:06;17.50;;;15.23;;
2099;SDS011;1055;48.854;9.302;2022-07-25T03:37:31;17.60;;;15.43;;
2099;SDS011;1055;48.854;9.302;2022-07-25T03:39:57;17.97;;;15.53;;
2099;SDS011;1055;48.854;9.302;2022-07-25T03:42:23;18.00;;;16.10;;
2099;SDS011;1055;48.854;9.302;2022-07-25T03:44:48;19.97;;;16.20;;
2099;SDS011;1055;48.854;9.302;2022-07-25T03:47:14;17.50;;;15.70;;
2099;SDS011;1055;48.854;9.302;2022-07-25T03:49:40;19.13;;;15.60;;
2099;SDS011;1055;48.854;9.302;2022-07-25T03:52:06;17.23;;;15.37;;
2099;SDS011;1055;48.854;9.302;2022-07-25T03:54:31;20.83;;;16.10;;
2099;SDS011;1055;48.854;9.302;2022-07-25T03:56:57;16.73;;;15.00;;
2099;SDS011;1055;48.854;9.302;2022-07-25T03:59:23;21.40;;;16.07;;
2099;SDS011;1055;48.854;9.302;2022-07-25T04:01:49;16.60;;;14.90;;
2099;SDS011;1055;48.854;9.302;2022-07-25T04:04:15;16.47;;;14.83;;
2099;SDS011;1055;48.854;9.302;2022-07-25T04:06:40;17.80;;;15.60;;
2099;SDS011;1055;48.854;9.302;2022-07-25T04:09:07;18.60;;;16.60;;
2099;SDS011;1055;48.854;9.302;2022-07-25T04:11:34;17.77;;;15.80;;
2099;SDS011;1055;48.854;9.302;2022-07-25T04:14:00;17.30;;;15.50;;
2099;SDS011;1055;48.854;9.302;2022-07-25T04:16:27;17.03;;;15.17;;
2099;SDS011;1055;48.854;9.302;2022-07-25T04:18:53;18.10;;;14.77;;
2099;SDS011;1055;48.854;9.302;2022-07-25T04:21:19;17.83;;;15.70;;
2099;SDS011;1055;48.854;9.302;2022-07-25T04:23:45;18.10;;;15.47;;
2099;SDS011;1055;48.854;9.302;2022-07-25T04:26:11;17.73;;;15.90;;
2099;SDS011;1055;48.854;9.302;2022-07-25T04:28:37;18.10;;;16.00;;
2099;SDS011;1055;48.854;9.302;2022-07-25T04:31:02;18.50;;;16.50;;
2099;SDS011;1055;48.854;9.302;2022-07-25T04:33:28;17.80;;;16.00;;
2099;SDS011;1055;48.854;9.302;2022-07-25T04:35:54;19.30;;;15.90;;
2099;SDS011;1055;48.854;9.302;2022-07-25T04:38:20;17.10;;;14.93;;
2099;SDS011;1055;48.854;9.302;2022-07-25T04:40:45;16.83;;;15.07;;
2099;SDS011;1055;48.854;9.302;2022-07-25T04:43:11;16.97;;;15.27;;
2099;SDS011;1055;48.854;9.302;2022-07-25T04:45:37;21.37;;;15.90;;
2099;SDS011;1055;48.854;9.302;2022-07-25T04:48:04;21.30;;;17.10;;
2099;SDS011;1055;48.854;9.302;2022-07-25T04:50:30;17.13;;;15.30;;
2099;SDS011;1055;48.854;9.302;2022-07-25T04:52:55;18.83;;;15.87;;
2099;SDS011;1055;48.854;9.302;2022-07-25T04:55:21;17.70;;;15.37;;
2099;SDS011;1055;48.854;9.302;2022-07-25T04:57:46;19.20;;;16.27;;
2099;SDS011;1055;48.854;9.302;2022-07-25T05:00:13;17.17;;;14.93;;
2099;SDS011;1055;48.854;9.302;2022-07-25T05:02:39;17.90;;;16.00;;
2099;SDS011;1055;48.854;9.302;2022-07-25T05:05:05;17.67;;;15.77;;
2099;SDS011;1055;48.854;9.302;2022-07-25T05:07:32;17.63;;;15.70;;
2099;SDS011;1055;48.854;9.302;2022-07-25T05:09:58;18.23;;;15.80;;
2099;SDS011;1055;48.854;9.302;2022-07-25T05:12:24;21.70;;;16.53;;
2099;SDS011;1055;48.854;9.302;2022-07-25T05:14:49;21.07;;;17.30;;
2099;SDS011;1055;48.854;9.302;2022-07-25T05:17:15;21.57;;;15.80;;
2099;SDS011;1055;48.854;9.302;2022-07-25T05:19:41;20.33;;;16.90;;
2099;SDS011;1055;48.854;9.302;2022-07-25T05:22:06;19.50;;;16.00;;
2099;SDS011;1055;48.854;9.302;2022-07-25T05:24:33;25.90;;;17.50;;
2099;SDS011;1055;48.854;9.302;2022-07-25T05:26:59;21.90;;;16.70;;
2099;SDS011;1055;48.854;9.302;2022-07-25T05:29:25;19.60;;;16.47;;
2099;SDS011;1055;48.854;9.302;2022-07-25T05:31:51;17.80;;;15.87;;
2099;SDS011;1055;48.854;9.302;2022-07-25T05:34:17;22.47;;;16.23;;
2099;SDS011;1055;48.854;9.302;2022-07-25T05:36:42;19.70;;;15.33;;
2099;SDS011;1055;48.854;9.302;2022-07-25T05:39:08;17.97;;;15.63;;
2099;SDS011;1055;48.854;9.302;2022-07-25T05:41:33;18.30;;;15.73;;
2099;SDS011;1055;48.854;9.302;2022-07-25T05:43:59;17.27;;;15.37;;
2099;SDS011;1055;48.854;9.302;2022-07-25T05:46:25;17.90;;;15.20;;
2099;SDS011;1055;48.854;9.302;2022-07-25T05:48:50;18.37;;;15.53;;
2099;SDS011;1055;48.854;9.302;2022-07-25T05:51:16;19.70;;;15.20;;
2099;SDS011;1055;48.854;9.302;2022-07-25T05:53:42;18.00;;;14.73;;
2099;SDS011;1055;48.854;9.302;2022-07-25T05:56:08;16.77;;;14.30;;
2099;SDS011;1055;48.854;9.302;2022-07-25T05:58:34;18.53;;;14.67;;
2099;SDS011;1055;48.854;9.302;2022-07-25T06:01:04;15.93;;;13.30;;
2099;SDS011;1055;48.854;9.302;2022-07-25T06:03:31;15.73;;;14.03;;
2099;SDS011;1055;48.854;9.302;2022-07-25T06:05:58;16.23;;;14.53;;
2099;SDS011;1055;48.854;9.302;2022-07-25T06:08:24;16.50;;;13.90;;
2099;SDS011;1055;48.854;9.302;2022-07-25T06:10:52;17.47;;;13.40;;
2099;SDS011;1055;48.854;9.302;2022-07-25T06:13:18;16.73;;;14.93;;
2099;SDS011;1055;48.854;9.302;2022-07-25T06:15:43;16.90;;;13.47;;
2099;SDS011;1055;48.854;9.302;2022-07-25T06:18:09;18.53;;;13.00;;
2099;SDS011;1055;48.854;9.302;2022-07-25T06:20:35;17.40;;;15.60;;
2099;SDS011;1055;48.854;9.302;2022-07-25T06:23:00;18.83;;;14.73;;
2099;SDS011;1055;48.854;9.302;2022-07-25T06:25:27;16.93;;;14.20;;
2099;SDS011;1055;48.854;9.302;2022-07-25T06:27:53;17.00;;;13.80;;
2099;SDS011;1055;48.854;9.302;2022-07-25T06:30:18;17.10;;;14.17;;
2099;SDS011;1055;48.854;9.302;2022-07-25T06:32:44;15.43;;;13.80;;
2099;SDS011;1055;48.854;9.302;2022-07-25T06:35:10;15.43;;;13.83;;
2099;SDS011;1055;48.854;9.302;2022-07-25T06:37:36;16.50;;;14.10;;
2099;SDS011;1055;48.854;9.302;2022-07-25T06:40:03;15.43;;;13.83;;
2099;SDS011;1055;48.854;9.302;2022-07-25T06:42:29;17.53;;;14.17;;
2099;SDS011;1055;48.854;9.302;2022-07-25T06:44:57;14.70;;;13.20;;
2099;SDS011;1055;48.854;9.302;2022-07-25T06:47:23;16.00;;;14.40;;
2099;SDS011;1055;48.854;9.302;2022-07-25T06:49:48;16.47;;;13.80;;
2099;SDS011;1055;48.854;9.302;2022-07-25T06:52:14;14.30;;;12.80;;
2099;SDS011;1055;48.854;9.302;2022-07-25T06:54:39;17.73;;;14.00;;
2099;SDS011;1055;48.854;9.302;2022-07-25T06:57:06;15.33;;;13.73;;
2099;SDS011;1055;48.854;9.302;2022-07-25T06:59:32;16.60;;;14.57;;
2099;SDS011;1055;48.854;9.302;2022-07-25T07:01:58;16.27;;;14.53;;
2099;SDS011;1055;48.854;9.302;2022-07-25T07:04:24;15.20;;;13.60;;
2099;SDS011;1055;48.854;9.302;2022-07-25T07:06:49;17.90;;;14.10;;
2099;SDS011;1055;48.854;9.302;2022-07-25T07:09:15;18.50;;;13.57;;
2099;SDS011;1055;48.854;9.302;2022-07-25T07:11:41;14.63;;;13.13;;
2099;SDS011;1055;48.854;9.302;2022-07-25T07:14:06;17.20;;;14.30;;
2099;SDS011;1055;48.854;9.302;2022-07-25T07:16:32;15.57;;;13.60;;
2099;SDS011;1055;48.854;9.302;2022-07-25T07:18:57;15.00;;;13.30;;
2099;SDS011;1055;48.854;9.302;2022-07-25T07:21:23;15.07;;;13.40;;
2099;SDS011;1055;48.854;9.302;2022-07-25T07:23:49;15.70;;;13.67;;
2099;SDS011;1055;48.854;9.302;2022-07-25T07:26:15;15.63;;;14.03;;
2099;SDS011;1055;48.854;9.302;2022-07-25T07:28:41;16.37;;;14.30;;
2099;SDS011;1055;48.854;9.302;2022-07-25T07:31:07;16.90;;;13.37;;
2099;SDS011;1055;48.854;9.302;2022-07-25T07:33:32;14.97;;;13.40;;
2099;SDS011;1055;48.854;9.302;2022-07-25T07:35:59;15.00;;;13.43;;
2099;SDS011;1055;48.854;9.302;2022-07-25T07:38:25;15.60;;;13.87;;
2099;SDS011;1055;48.854;9.302;2022-07-25T07:40:52;15.10;;;13.43;;
2099;SDS011;1055;48.854;9.302;2022-07-25T07:43:18;15.70;;;14.10;;
2099;SDS011;1055;48.854;9.302;2022-07-25T07:45:43;14.40;;;12.90;;
2099;SDS011;1055;48.854;9.302;2022-07-25T07:48:09;15.00;;;12.70;;
2099;SDS011;1055;48.854;9.302;2022-07-25T07:50:35;15.33;;;13.60;;
2099;SDS011;1055;48.854;9.302;2022-07-25T07:53:01;14.20;;;12.80;;
2099;SDS011;1055;48.854;9.302;2022-07-25T07:55:27;18.43;;;13.53;;
2099;SDS011;1055;48.854;9.302;2022-07-25T07:58:08;14.80;;;13.07;;
2099;SDS011;1055;48.854;9.302;2022-07-25T08:00:34;15.50;;;13.40;;
2099;SDS011;1055;48.854;9.302;2022-07-25T08:03:03;14.73;;;13.20;;
2099;SDS011;1055;48.854;9.302;2022-07-25T08:05:31;20.30;;;16.70;;
2099;SDS011;1055;48.854;9.302;2022-07-25T08:08:00;14.37;;;12.73;;
2099;SDS011;1055;48.854;9.302;2022-07-25T08:10:27;14.90;;;13.40;;
2099;SDS011;1055;48.854;9.302;2022-07-25T08:12:54;14.67;;;13.20;;
2099;SDS011;1055;48.854;9.302;2022-07-25T08:15:21;15.27;;;13.67;;
2099;SDS011;1055;48.854;9.302;2022-07-25T08:17:47;14.90;;;13.50;;
2099;SDS011;1055;48.854;9.302;2022-07-25T08:20:18;16.33;;;13.50;;
2099;SDS011;1055;48.854;9.302;2022-07-25T08:22:47;15.70;;;14.20;;
2099;SDS011;1055;48.854;9.302;2022-07-25T08:25:15;16.83;;;13.40;;
2099;SDS011;1055;48.854;9.302;2022-07-25T08:27:44;16.50;;;14.73;;
2099;SDS011;1055;48.854;9.302;2022-07-25T08:30:11;16.00;;;13.70;;
2099;SDS011;1055;48.854;9.302;2022-07-25T08:32:55;20.13;;;14.57;;
2099;SDS011;1055;48.854;9.302;2022-07-25T08:35:24;16.60;;;14.33;;
2099;SDS011;1055;48.854;9.302;2022-07-25T08:37:51;18.23;;;15.43;;
2099;SDS011;1055;48.854;9.302;2022-07-25T08:40:20;16.43;;;14.73;;
2099;SDS011;1055;48.854;9.302;2022-07-25T08:42:48;16.27;;;14.50;;
2099;SDS011;1055;48.854;9.302;2022-07-25T08:45:15;16.67;;;15.00;;
2099;SDS011;1055;48.854;9.302;2022-07-25T08:47:44;18.13;;;14.33;;
2099;SDS011;1055;48.854;9.302;2022-07-25T08:50:12;15.80;;;14.10;;
2099;SDS011;1055;48.854;9.302;2022-07-25T08:52:40;16.63;;;15.00;;
2099;SDS011;1055;48.854;9.302;2022-07-25T08:55:15;15.43;;;13.97;;
2099;SDS011;1055;48.854;9.302;2022-07-25T08:57:44;16.80;;;14.20;;
2099;SDS011;1055;48.854;9.302;2022-07-25T09:00:11;16.77;;;15.00;;
2099;SDS011;1055;48.854;9.302;2022-07-25T09:02:39;16.90;;;15.03;;
2099;SDS011;1055;48.854;9.302;2022-07-25T09:05:05;15.20;;;13.70;;
2099;SDS011;1055;48.854;9.302;2022-07-25T09:07:33;16.80;;;15.20;;
2099;SDS011;1055;48.854;9.302;2022-07-25T09:15:32;15.67;;;14.07;;
2099;SDS011;1055;48.854;9.302;2022-07-25T09:18:01;15.90;;;14.40;;
2099;SDS011;1055;48.854;9.302;2022-07-25T09:20:46;17.20;;;13.20;;
2099;SDS011;1055;48.854;9.302;2022-07-25T09:23:30;16.37;;;14.77;;
2099;SDS011;1055;48.854;9.302;2022-07-25T09:26:04;23.83;;;14.43;;
2099;SDS011;1055;48.854;9.302;2022-07-25T09:28:39;15.37;;;13.77;;
2099;SDS011;1055;48.854;9.302;2022-07-25T09:31:06;15.30;;;13.80;;
2099;SDS011;1055;48.854;9.302;2022-07-25T09:33:33;17.10;;;14.00;;
2099;SDS011;1055;48.854;9.302;2022-07-25T09:36:09;15.00;;;13.60;;
2099;SDS011;1055;48.854;9.302;2022-07-25T09:38:36;15.30;;;13.80;;
2099;SDS011;1055;48.854;9.302;2022-07-25T09:41:01;15.80;;;13.60;;
2099;SDS011;1055;48.854;9.302;2022-07-25T09:43:38;14.73;;;13.23;;
2099;SDS011;1055;48.854;9.302;2022-07-25T09:46:06;13.77;;;12.37;;
2099;SDS011;1055;48.854;9.302;2022-07-25T09:48:33;14.63;;;13.13;;
2099;SDS011;1055;48.854;9.302;2022-07-25T09:51:03;16.60;;;14.90;;
2099;SDS011;1055;48.854;9.302;2022-07-25T09:53:30;14.90;;;13.30;;
2099;SDS011;1055;48.854;9.302;2022-07-25T09:55:56;16.47;;;12.63;;
2099;SDS011;1055;48.854;9.302;2022-07-25T09:58:22;14.03;;;12.60;;
2099;SDS011;1055;48.854;9.302;2022-07-25T10:00:48;13.23;;;11.93;;
2099;SDS011;1055;48.854;9.302;2022-07-25T10:08:14;15.73;;;12.87;;
2099;SDS011;1055;48.854;9.302;2022-07-25T10:10:41;13.80;;;12.40;;
2099;SDS011;1055;48.854;9.302;2022-07-25T10:13:07;14.20;;;12.77;;
2099;SDS011;1055;48.854;9.302;2022-07-25T10:18:12;13.70;;;12.30;;
2099;SDS011;1055;48.854;9.302;2022-07-25T10:20:39;13.50;;;12.10;;
2099;SDS011;1055;48.854;9.302;2022-07-25T10:23:15;13.90;;;12.50;;
2099;SDS011;1055;48.854;9.302;2022-07-25T10:26:02;14.83;;;13.17;;
2099;SDS011;1055;48.854;9.302;2022-07-25T10:29:06;14.47;;;12.77;;
2099;SDS011;1055;48.854;9.302;2022-07-25T10:31:33;13.90;;;12.40;;
2099;SDS011;1055;48.854;9.302;2022-07-25T10:34:07;15.43;;;12.57;;
2099;SDS011;1055;48.854;9.302;2022-07-25T10:36:44;13.67;;;12.27;;
2099;SDS011;1055;48.854;9.302;2022-07-25T10:39:17;15.40;;;13.40;;
2099;SDS011;1055;48.854;9.302;2022-07-25T10:41:54;13.33;;;12.03;;
2099;SDS011;1055;48.854;9.302;2022-07-25T10:44:26;14.00;;;12.60;;
2099;SDS011;1055;48.854;9.302;2022-07-25T10:47:04;13.37;;;11.93;;
2099;SDS011;1055;48.854;9.302;2022-07-25T10:49:34;13.00;;;11.20;;
2099;SDS011;1055;48.854;9.302;2022-07-25T10:52:03;14.03;;;12.63;;
2099;SDS011;1055;48.854;9.302;2022-07-25T10:54:33;13.37;;;12.07;;
2099;SDS011;1055;48.854;9.302;2022-07-25T10:57:03;13.47;;;12.07;;
2099;SDS011;1055;48.854;9.302;2022-07-25T10:59:34;14.00;;;12.60;;
2099;SDS011;1055;48.854;9.302;2022-07-25T11:02:02;13.93;;;12.53;;
2099;SDS011;1055;48.854;9.302;2022-07-25T11:04:29;13.33;;;11.90;;
2099;SDS011;1055;48.854;9.302;2022-07-25T11:06:55;14.40;;;12.90;;
2099;SDS011;1055;48.854;9.302;2022-07-25T11:09:25;12.93;;;11.10;;
2099;SDS011;1055;48.854;9.302;2022-07-25T11:11:56;13.77;;;11.37;;
2099;SDS011;1055;48.854;9.302;2022-07-25T11:16:57;11.70;;;10.50;;
2099;SDS011;1055;48.854;9.302;2022-07-25T11:19:34;11.70;;;10.50;;
2099;SDS011;1055;48.854;9.302;2022-07-25T11:22:01;12.07;;;10.87;;
2099;SDS011;1055;48.854;9.302;2022-07-25T11:24:39;13.13;;;10.87;;
2099;SDS011;1055;48.854;9.302;2022-07-25T11:27:07;12.80;;;9.83;;
2099;SDS011;1055;48.854;9.302;2022-07-25T11:29:36;14.60;;;11.30;;
2099;SDS011;1055;48.854;9.302;2022-07-25T11:32:05;14.33;;;10.90;;
2099;SDS011;1055;48.854;9.302;2022-07-25T11:34:33;11.93;;;10.73;;
2099;SDS011;1055;48.854;9.302;2022-07-25T11:37:02;12.10;;;10.27;;
2099;SDS011;1055;48.854;9.302;2022-07-25T11:39:31;11.57;;;10.37;;
2099;SDS011;1055;48.854;9.302;2022-07-25T11:42:16;11.30;;;9.83;;
2099;SDS011;1055;48.854;9.302;2022-07-25T11:44:48;11.90;;;10.57;;
2099;SDS011;1055;48.854;9.302;2022-07-25T11:49:58;11.80;;;10.60;;
2099;SDS011;1055;48.854;9.302;2022-07-25T11:52:35;11.53;;;10.33;;
2099;SDS011;1055;48.854;9.302;2022-07-25T11:55:09;12.60;;;9.77;;
2099;SDS011;1055;48.854;9.302;2022-07-25T11:57:38;11.97;;;10.50;;
2099;SDS011;1055;48.854;9.302;2022-07-25T12:00:18;12.57;;;10.40;;
2099;SDS011;1055;48.854;9.302;2022-07-25T12:02:46;12.87;;;10.07;;
2099;SDS011;1055;48.854;9.302;2022-07-25T12:05:14;10.50;;;9.40;;
2099;SDS011;1055;48.854;9.302;2022-07-25T12:07:48;10.97;;;9.77;;
2099;SDS011;1055;48.854;9.302;2022-07-25T12:10:22;15.27;;;9.70;;
2099;SDS011;1055;48.854;9.302;2022-07-25T12:12:49;11.27;;;10.10;;
2099;SDS011;1055;48.854;9.302;2022-07-25T12:15:20;11.10;;;10.00;;
2099;SDS011;1055;48.854;9.302;2022-07-25T12:17:49;13.27;;;10.37;;
2099;SDS011;1055;48.854;9.302;2022-07-25T12:20:20;11.33;;;10.20;;
2099;SDS011;1055;48.854;9.302;2022-07-25T12:22:50;10.83;;;9.73;;
2099;SDS011;1055;48.854;9.302;2022-07-25T12:25:18;10.87;;;9.70;;
2099;SDS011;1055;48.854;9.302;2022-07-25T12:27:44;11.13;;;9.73;;
2099;SDS011;1055;48.854;9.302;2022-07-25T12:30:10;13.27;;;9.77;;
2099;SDS011;1055;48.854;9.302;2022-07-25T12:32:36;11.20;;;10.10;;
2099;SDS011;1055;48.854;9.302;2022-07-25T12:35:03;10.60;;;9.50;;
2099;SDS011;1055;48.854;9.302;2022-07-25T12:37:32;10.57;;;9.43;;
2099;SDS011;1055;48.854;9.302;2022-07-25T12:39:58;14.40;;;9.80;;
2099;SDS011;1055;48.854;9.302;2022-07-25T12:42:24;10.73;;;9.63;;
2099;SDS011;1055;48.854;9.302;2022-07-25T12:44:51;9.87;;;8.60;;
2099;SDS011;1055;48.854;9.302;2022-07-25T12:47:17;12.97;;;9.50;;
2099;SDS011;1055;48.854;9.302;2022-07-25T12:49:43;11.17;;;8.43;;
2099;SDS011;1055;48.854;9.302;2022-07-25T12:52:08;10.67;;;9.57;;
2099;SDS011;1055;48.854;9.302;2022-07-25T12:54:34;9.50;;;8.50;;
2099;SDS011;1055;48.854;9.302;2022-07-25T12:56:59;13.33;;;9.23;;
2099;SDS011;1055;48.854;9.302;2022-07-25T12:59:25;10.03;;;8.73;;
2099;SDS011;1055;48.854;9.302;2022-07-25T13:01:51;11.30;;;9.37;;
2099;SDS011;1055;48.854;9.302;2022-07-25T13:04:17;10.20;;;9.10;;
2099;SDS011;1055;48.854;9.302;2022-07-25T13:06:43;10.83;;;9.33;;
2099;SDS011;1055;48.854;9.302;2022-07-25T13:09:09;10.97;;;9.57;;
2099;SDS011;1055;48.854;9.302;2022-07-25T13:11:34;13.13;;;9.50;;
2099;SDS011;1055;48.854;9.302;2022-07-25T13:14:00;11.20;;;9.20;;
2099;SDS011;1055;48.854;9.302;2022-07-25T13:16:26;11.10;;;9.13;;
2099;SDS011;1055;48.854;9.302;2022-07-25T13:18:51;12.13;;;10.30;;
2099;SDS011;1055;48.854;9.302;2022-07-25T13:21:17;12.70;;;9.37;;
2099;SDS011;1055;48.854;9.302;2022-07-25T13:23:44;11.33;;;9.73;;
2099;SDS011;1055;48.854;9.302;2022-07-25T13:26:09;13.53;;;10.70;;
2099;SDS011;1055;48.854;9.302;2022-07-25T13:28:35;13.17;;;10.10;;
2099;SDS011;1055;48.854;9.302;2022-07-25T13:31:00;13.97;;;10.20;;
2099;SDS011;1055;48.854;9.302;2022-07-25T13:33:27;12.07;;;10.10;;
2099;SDS011;1055;48.854;9.302;2022-07-25T13:35:52;11.53;;;10.33;;
2099;SDS011;1055;48.854;9.302;2022-07-25T13:38:19;12.70;;;11.40;;
2099;SDS011;1055;48.854;9.302;2022-07-25T13:40:44;11.13;;;9.93;;
2099;SDS011;1055;48.854;9.302;2022-07-25T13:43:11;11.77;;;9.80;;
2099;SDS011;1055;48.854;9.302;2022-07-25T13:45:37;15.20;;;10.87;;
2099;SDS011;1055;48.854;9.302;2022-07-25T13:48:05;12.20;;;10.23;;
2099;SDS011;1055;48.854;9.302;2022-07-25T13:50:31;12.10;;;10.90;;
2099;SDS011;1055;48.854;9.302;2022-07-25T13:52:57;11.47;;;10.37;;
2099;SDS011;1055;48.854;9.302;2022-07-25T13:55:27;13.03;;;10.50;;
2099;SDS011;1055;48.854;9.302;2022-07-25T13:57:54;10.70;;;9.60;;
2099;SDS011;1055;48.854;9.302;2022-07-25T14:00:20;12.00;;;10.80;;
2099;SDS011;1055;48.854;9.302;2022-07-25T14:02:45;12.37;;;11.07;;
2099;SDS011;1055;48.854;9.302;2022-07-25T14:05:11;12.63;;;10.73;;
2099;SDS011;1055;48.854;9.302;2022-07-25T14:07:37;12.60;;;11.07;;
2099;SDS011;1055;48.854;9.302;2022-07-25T14:10:03;11.80;;;10.60;;
2099;SDS011;1055;48.854;9.302;2022-07-25T14:12:32;13.10;;;10.60;;
2099;SDS011;1055;48.854;9.302;2022-07-25T14:15:01;12.37;;;10.57;;
2099;SDS011;1055;48.854;9.302;2022-07-25T14:17:27;11.30;;;9.93;;
2099;SDS011;1055;48.854;9.302;2022-07-25T14:19:53;11.73;;;10.53;;
2099;SDS011;1055;48.854;9.302;2022-07-25T14:22:19;12.10;;;10.87;;
2099;SDS011;1055;48.854;9.302;2022-07-25T14:24:44;11.83;;;10.07;;
2099;SDS011;1055;48.854;9.302;2022-07-25T14:27:10;11.63;;;10.30;;
2099;SDS011;1055;48.854;9.302;2022-07-25T14:29:36;12.83;;;10.87;;
2099;SDS011;1055;48.854;9.302;2022-07-25T14:32:05;12.27;;;11.07;;
2099;SDS011;1055;48.854;9.302;2022-07-25T14:34:35;11.53;;;10.33;;
2099;SDS011;1055;48.854;9.302;2022-07-25T14:37:05;13.93;;;10.90;;
2099;SDS011;1055;48.854;9.302;2022-07-25T14:39:31;14.03;;;10.77;;
2099;SDS011;1055;48.854;9.302;2022-07-25T14:41:58;12.30;;;11.00;;
2099;SDS011;1055;48.854;9.302;2022-07-25T14:44:26;13.40;;;10.60;;
2099;SDS011;1055;48.854;9.302;2022-07-25T14:46:53;13.90;;;11.10;;
2099;SDS011;1055;48.854;9.302;2022-07-25T14:49:20;13.07;;;11.50;;
2099;SDS011;1055;48.854;9.302;2022-07-25T14:51:47;11.83;;;10.63;;
2099;SDS011;1055;48.854;9.302;2022-07-25T14:54:13;15.13;;;11.50;;
2099;SDS011;1055;48.854;9.302;2022-07-25T14:56:42;12.50;;;11.20;;
2099;SDS011;1055;48.854;9.302;2022-07-25T14:59:08;14.50;;;12.30;;
2099;SDS011;1055;48.854;9.302;2022-07-25T15:01:34;14.33;;;11.27;;
2099;SDS011;1055;48.854;9.302;2022-07-25T15:04:01;14.40;;;11.50;;
2099;SDS011;1055;48.854;9.302;2022-07-25T15:06:27;12.53;;;11.27;;
2099;SDS011;1055;48.854;9.302;2022-07-25T15:08:53;14.10;;;11.70;;